Time;durP1;ratioP1;P1;durP2;ratioP2;P2;SDS_P1;SDS_P2;PMS_P1;PMS_P2;Temp;Humidity;BMP_temperature;BMP_pressure;BME280_temperature;BME280_humidity;BME280_pressure;Samples;Min_cycle;Max_cycle;Signal;HPM_P1;HPM_P2
2020/12/21 00:01:03;;;;;;;24.10;16.38;;;4.50;99.90;;;;;;5058934;28;20230;-82
2020/12/21 00:03:29;;;;;;;21.70;15.55;;;4.50;99.90;;;;;;5059475;28;20577;-82
2020/12/21 00:05:55;;;;;;;23.65;15.50;;;4.50;99.90;;;;;;5058625;28;20203;-82
2020/12/21 00:08:23;;;;;;;23.17;15.25;;;4.50;99.90;;;;;;5057910;28;20569;-81
2020/12/21 00:10:50;;;;;;;23.42;16.30;;;4.60;99.90;;;;;;5058371;28;20222;-80
2020/12/21 00:13:17;;;;;;;24.00;16.92;;;4.60;99.90;;;;;;5058038;28;20675;-81
2020/12/21 00:15:43;;;;;;;24.40;15.57;;;4.60;99.90;;;;;;5058846;28;20210;-82
2020/12/21 00:18:10;;;;;;;19.80;14.23;;;4.50;99.90;;;;;;5059180;28;20215;-83
2020/12/21 00:20:36;;;;;;;21.10;15.52;;;4.50;99.90;;;;;;5059413;28;20203;-82
2020/12/21 00:23:02;;;;;;;20.98;16.63;;;4.60;99.90;;;;;;5060847;28;20256;-82
2020/12/21 00:25:30;;;;;;;22.00;14.95;;;4.50;99.90;;;;;;5061337;28;20207;-81
2020/12/21 00:27:56;;;;;;;22.00;16.13;;;4.50;99.90;;;;;;5061970;28;20582;-82
2020/12/21 00:30:22;;;;;;;22.63;15.50;;;4.50;99.90;;;;;;5062870;28;20229;-83
2020/12/21 00:32:48;;;;;;;24.05;15.68;;;4.60;99.90;;;;;;5063169;28;20314;-82
2020/12/21 00:35:15;;;;;;;22.00;15.52;;;4.60;99.90;;;;;;5058432;28;20309;-81
2020/12/21 00:37:41;;;;;;;22.95;16.63;;;4.60;99.90;;;;;;5058135;28;20203;-81
2020/12/21 00:40:07;;;;;;;23.05;15.98;;;4.60;99.90;;;;;;5057542;28;20205;-80
2020/12/21 00:42:34;;;;;;;24.42;16.48;;;4.60;99.90;;;;;;5057611;28;20231;-82
2020/12/21 00:45:01;;;;;;;22.73;16.02;;;4.60;99.90;;;;;;5057925;28;20747;-80
2020/12/21 00:47:27;;;;;;;22.38;16.08;;;4.50;99.90;;;;;;5059332;28;20296;-82
2020/12/21 00:49:53;;;;;;;21.63;15.15;;;4.50;99.90;;;;;;5059528;28;20233;-82
2020/12/21 00:52:20;;;;;;;24.98;17.05;;;4.50;99.90;;;;;;5058670;28;20233;-82
2020/12/21 00:54:46;;;;;;;23.85;16.15;;;4.50;99.90;;;;;;5059201;28;20207;-81
2020/12/21 00:57:12;;;;;;;19.63;14.60;;;4.50;99.90;;;;;;5057428;28;20207;-81
2020/12/21 00:59:40;;;;;;;25.70;17.40;;;4.50;99.90;;;;;;5058333;28;20238;-81
2020/12/21 01:02:06;;;;;;;23.05;16.38;;;4.60;99.90;;;;;;5058407;28;20711;-81
2020/12/21 01:04:32;;;;;;;22.52;15.68;;;4.50;99.90;;;;;;5057585;28;20246;-82
2020/12/21 01:06:59;;;;;;;23.80;16.00;;;4.50;99.90;;;;;;5057798;28;20207;-81
2020/12/21 01:09:25;;;;;;;22.00;15.18;;;4.50;99.90;;;;;;5058557;28;20286;-82
2020/12/21 01:11:53;;;;;;;23.13;15.85;;;4.50;99.90;;;;;;5060810;28;20610;-84
2020/12/21 01:14:19;;;;;;;25.15;17.25;;;4.50;99.90;;;;;;5060843;28;20207;-82
2020/12/21 01:16:47;;;;;;;27.70;17.80;;;4.50;99.90;;;;;;5057048;28;20221;-79
2020/12/21 01:19:13;;;;;;;27.25;17.75;;;4.50;99.90;;;;;;5057078;28;20258;-80
2020/12/21 01:21:40;;;;;;;28.70;17.67;;;4.50;99.90;;;;;;5056544;28;20722;-80
2020/12/21 01:24:06;;;;;;;24.40;16.27;;;4.50;99.90;;;;;;5056049;28;20229;-80
2020/12/21 01:26:32;;;;;;;26.75;17.35;;;4.40;99.90;;;;;;5057036;28;20210;-80
2020/12/21 01:28:59;;;;;;;23.77;15.57;;;4.50;99.90;;;;;;5056589;28;20314;-80
2020/12/21 01:31:25;;;;;;;23.10;16.08;;;4.50;99.90;;;;;;5055894;28;20778;-79
2020/12/21 01:33:52;;;;;;;25.75;17.85;;;4.50;99.90;;;;;;5057540;28;20207;-80
2020/12/21 01:36:20;;;;;;;27.77;17.77;;;4.60;99.90;;;;;;5058672;28;20209;-81
2020/12/21 01:38:47;;;;;;;30.95;18.42;;;4.60;99.90;;;;;;5058368;28;20203;-80
2020/12/21 01:41:13;;;;;;;28.63;17.73;;;4.60;99.90;;;;;;5058096;28;20262;-81
2020/12/21 01:43:40;;;;;;;24.55;15.43;;;4.60;99.90;;;;;;5061807;28;20211;-79
2020/12/21 01:46:11;;;;;;;25.40;16.63;;;4.70;99.90;;;;;;5068708;28;20235;-80
2020/12/21 01:48:38;;;;;;;25.75;17.25;;;4.60;99.90;;;;;;5059319;28;20751;-81
2020/12/21 01:51:06;;;;;;;23.23;16.13;;;4.70;99.90;;;;;;5057836;28;20265;-80
2020/12/21 01:53:34;;;;;;;27.77;16.75;;;4.70;99.90;;;;;;5058370;28;20199;-82
2020/12/21 01:56:04;;;;;;;24.27;15.93;;;4.70;99.90;;;;;;5058295;28;20746;-81
2020/12/21 01:58:30;;;;;;;21.75;16.27;;;4.70;99.90;;;;;;5057668;28;20202;-81
2020/12/21 02:00:59;;;;;;;26.17;17.75;;;4.70;99.90;;;;;;5057572;28;20624;-79
2020/12/21 02:03:25;;;;;;;26.45;16.88;;;4.80;99.90;;;;;;5057705;28;20210;-81
2020/12/21 02:05:52;;;;;;;22.40;15.00;;;4.70;99.90;;;;;;5057226;28;20209;-80
2020/12/21 02:08:19;;;;;;;22.85;15.38;;;4.80;99.90;;;;;;5058615;28;20203;-81
2020/12/21 02:10:45;;;;;;;23.30;16.80;;;4.70;99.90;;;;;;5068972;28;20227;-81
2020/12/21 02:13:12;;;;;;;20.67;15.68;;;4.80;99.90;;;;;;5061772;28;20269;-80
2020/12/21 02:15:38;;;;;;;21.08;13.68;;;4.80;99.90;;;;;;5072161;28;20262;-80
2020/12/21 02:18:04;;;;;;;22.30;15.30;;;4.80;99.90;;;;;;5072470;28;20290;-80
2020/12/21 02:20:32;;;;;;;21.75;14.88;;;4.80;99.90;;;;;;5061816;28;20198;-80
2020/12/21 02:22:59;;;;;;;22.80;16.38;;;4.70;99.90;;;;;;5058081;28;20199;-80
2020/12/21 02:25:25;;;;;;;24.17;16.60;;;4.70;99.90;;;;;;5056703;28;20199;-80
2020/12/21 02:27:52;;;;;;;23.95;16.83;;;4.80;99.90;;;;;;5056265;28;20336;-79
2020/12/21 02:30:18;;;;;;;26.17;15.00;;;4.80;99.90;;;;;;5056246;28;20257;-81
2020/12/21 02:32:44;;;;;;;22.90;15.93;;;4.80;99.90;;;;;;5056477;28;20309;-80
2020/12/21 02:35:16;;;;;;;21.52;15.82;;;4.80;99.90;;;;;;5065281;28;20207;-79
2020/12/21 02:37:44;;;;;;;19.83;14.05;;;4.80;99.90;;;;;;5060151;28;20633;-81
2020/12/21 02:40:10;;;;;;;21.45;14.98;;;4.80;99.90;;;;;;5057802;28;20203;-79
2020/12/21 02:42:37;;;;;;;24.83;16.33;;;4.70;99.90;;;;;;5057263;28;20369;-80
2020/12/21 02:45:04;;;;;;;24.50;16.48;;;4.70;99.90;;;;;;5058093;28;20230;-80
2020/12/21 02:47:30;;;;;;;23.08;15.65;;;4.80;99.90;;;;;;5063064;28;20207;-79
2020/12/21 02:49:56;;;;;;;26.25;17.35;;;4.80;99.90;;;;;;5062610;28;20233;-79
2020/12/21 02:52:23;;;;;;;26.15;17.45;;;4.80;99.90;;;;;;5056785;28;20313;-79
2020/12/21 02:54:51;;;;;;;25.75;17.92;;;4.80;99.90;;;;;;5056978;28;20211;-81
2020/12/21 02:57:17;;;;;;;22.70;16.67;;;4.80;99.90;;;;;;5056713;28;20230;-79
2020/12/21 02:59:44;;;;;;;23.13;17.30;;;4.70;99.90;;;;;;5056789;28;20199;-80
2020/12/21 03:02:10;;;;;;;21.77;15.25;;;4.80;99.90;;;;;;5056546;28;20226;-81
2020/12/21 03:04:36;;;;;;;27.15;18.90;;;4.80;99.90;;;;;;5056955;28;20238;-79
2020/12/21 03:07:03;;;;;;;25.55;18.30;;;4.80;99.90;;;;;;5057646;28;20206;-79
2020/12/21 03:09:29;;;;;;;24.70;16.33;;;4.80;99.90;;;;;;5057288;28;20227;-79
2020/12/21 03:11:57;;;;;;;24.10;17.27;;;4.80;99.90;;;;;;5058448;28;20715;-80
2020/12/21 03:14:23;;;;;;;23.40;16.65;;;4.90;99.90;;;;;;5072217;28;20210;-80
2020/12/21 03:16:49;;;;;;;21.92;16.90;;;4.80;99.90;;;;;;5069929;28;20357;-80
2020/12/21 03:19:18;;;;;;;22.88;15.93;;;4.90;99.90;;;;;;5061001;28;20205;-80
2020/12/21 03:21:44;;;;;;;25.85;17.45;;;4.90;99.90;;;;;;5058479;28;20226;-80
2020/12/21 03:24:11;;;;;;;23.77;16.40;;;4.90;99.90;;;;;;5057531;28;20206;-80
2020/12/21 03:26:37;;;;;;;21.95;16.20;;;4.90;99.90;;;;;;5055485;28;20575;-80
2020/12/21 03:29:04;;;;;;;24.40;16.20;;;4.90;99.90;;;;;;5054857;28;20227;-81
2020/12/21 03:31:31;;;;;;;23.52;16.90;;;5.00;99.90;;;;;;5055568;28;20271;-81
2020/12/21 03:33:57;;;;;;;25.85;17.77;;;5.00;99.90;;;;;;5055248;28;20203;-81
2020/12/21 03:36:23;;;;;;;23.65;16.05;;;4.90;99.90;;;;;;5055933;28;20219;-80
2020/12/21 03:38:50;;;;;;;24.67;17.25;;;5.00;99.90;;;;;;5056698;28;20233;-82
2020/12/21 03:41:16;;;;;;;24.08;16.95;;;5.00;99.90;;;;;;5055928;28;20650;-81
2020/12/21 03:43:42;;;;;;;24.55;17.80;;;5.00;99.90;;;;;;5058501;28;20199;-81
2020/12/21 03:46:09;;;;;;;22.10;17.45;;;5.00;99.90;;;;;;5060289;28;20294;-81
2020/12/21 03:48:36;;;;;;;25.38;18.08;;;5.00;99.90;;;;;;5061595;28;20258;-82
2020/12/21 03:51:02;;;;;;;20.55;15.63;;;5.00;99.90;;;;;;5062202;28;20609;-81
2020/12/21 03:53:28;;;;;;;28.35;19.23;;;5.00;99.90;;;;;;5061754;28;20711;-82
2020/12/21 03:55:55;;;;;;;26.80;17.95;;;5.00;99.90;;;;;;5062416;28;20585;-82
2020/12/21 03:58:21;;;;;;;24.00;16.45;;;5.00;99.90;;;;;;5062571;28;20302;-82
2020/12/21 04:00:47;;;;;;;25.38;19.02;;;5.00;99.90;;;;;;5062577;28;20254;-81
2020/12/21 04:03:15;;;;;;;25.17;17.58;;;5.00;99.90;;;;;;5064004;28;20226;-81
2020/12/21 04:05:41;;;;;;;27.45;19.67;;;5.00;99.90;;;;;;5068232;28;20242;-80
2020/12/21 04:08:08;;;;;;;25.02;19.05;;;5.00;99.90;;;;;;5068223;28;20260;-81
2020/12/21 04:10:34;;;;;;;24.58;17.23;;;5.00;99.90;;;;;;5067827;28;20219;-82
2020/12/21 04:13:00;;;;;;;24.10;16.90;;;5.00;99.90;;;;;;5065526;28;20285;-82
2020/12/21 04:15:26;;;;;;;24.75;17.45;;;5.00;99.90;;;;;;5065709;28;20207;-81
2020/12/21 04:17:53;;;;;;;23.52;17.60;;;5.10;99.90;;;;;;5064333;28;20289;-81
2020/12/21 04:20:20;;;;;;;24.02;16.65;;;5.00;99.90;;;;;;5062484;28;20199;-80
2020/12/21 04:22:46;;;;;;;27.85;18.10;;;5.10;99.90;;;;;;5061239;28;20315;-81
2020/12/21 04:25:13;;;;;;;26.92;17.35;;;5.00;99.90;;;;;;5061061;28;20202;-81
2020/12/21 04:27:39;;;;;;;30.77;18.15;;;5.10;99.90;;;;;;5061205;28;20203;-80
2020/12/21 04:30:06;;;;;;;27.20;17.70;;;5.10;99.90;;;;;;5061210;28;20242;-80
2020/12/21 04:32:32;;;;;;;20.48;16.08;;;5.10;99.90;;;;;;5060176;28;20310;-81
2020/12/21 04:34:58;;;;;;;22.45;16.25;;;5.10;99.90;;;;;;5060549;28;20207;-80
2020/12/21 04:37:25;;;;;;;23.63;16.20;;;5.00;99.90;;;;;;5060204;28;20270;-81
2020/12/21 04:39:52;;;;;;;25.83;16.65;;;5.00;99.90;;;;;;5061882;28;20205;-81
2020/12/21 04:42:18;;;;;;;23.40;16.05;;;5.10;99.90;;;;;;5061551;28;20668;-81
2020/12/21 04:44:44;;;;;;;25.27;16.80;;;5.00;99.90;;;;;;5061838;28;20203;-80
2020/12/21 04:47:13;;;;;;;24.98;18.67;;;5.00;99.90;;;;;;5061981;28;20624;-81
2020/12/21 04:49:41;;;;;;;26.73;18.20;;;5.10;99.90;;;;;;5061057;28;20677;-80
2020/12/21 04:52:11;;;;;;;26.48;17.50;;;5.10;99.90;;;;;;5060628;28;20310;-81
2020/12/21 04:54:39;;;;;;;25.25;17.60;;;5.10;99.90;;;;;;5059815;28;20561;-81
2020/12/21 04:57:06;;;;;;;24.58;16.08;;;5.00;99.90;;;;;;5060602;28;20207;-81
2020/12/21 04:59:32;;;;;;;25.83;18.27;;;4.90;99.90;;;;;;5060059;28;20203;-81
2020/12/21 05:01:58;;;;;;;26.33;18.13;;;4.90;99.90;;;;;;5061690;28;20294;-81
2020/12/21 05:04:25;;;;;;;28.40;19.02;;;4.90;99.90;;;;;;5064020;28;20214;-81
2020/12/21 05:06:52;;;;;;;23.13;16.25;;;4.90;99.90;;;;;;5063983;28;20285;-80
2020/12/21 05:09:21;;;;;;;26.45;17.55;;;4.90;99.90;;;;;;5062578;28;20223;-81
2020/12/21 05:11:55;;;;;;;26.48;18.25;;;4.80;99.90;;;;;;5063573;28;20223;-81
2020/12/21 05:14:31;;;;;;;24.50;17.65;;;4.90;99.90;;;;;;5064263;28;20639;-81
2020/12/21 05:17:07;;;;;;;28.05;19.88;;;4.90;99.90;;;;;;5062157;28;20436;-82
2020/12/21 05:19:34;;;;;;;25.52;17.50;;;4.90;99.90;;;;;;5062473;28;20206;-81
2020/12/21 05:22:00;;;;;;;25.42;17.85;;;4.80;99.90;;;;;;5063083;28;20264;-82
2020/12/21 05:24:27;;;;;;;26.52;19.60;;;4.80;99.90;;;;;;5062135;28;20464;-82
2020/12/21 05:26:54;;;;;;;26.23;18.05;;;4.80;99.90;;;;;;5069317;28;20230;-81
2020/12/21 05:29:27;;;;;;;29.20;18.30;;;4.70;99.90;;;;;;5078303;28;20226;-80
2020/12/21 05:31:53;;;;;;;27.63;18.25;;;4.80;99.90;;;;;;5075750;28;20223;-80
2020/12/21 05:34:26;;;;;;;22.98;16.00;;;4.80;99.90;;;;;;5066830;28;20253;-80
2020/12/21 05:36:53;;;;;;;22.17;15.90;;;4.70;99.90;;;;;;5068854;28;20222;-81
2020/12/21 05:39:20;;;;;;;25.80;17.08;;;4.60;99.90;;;;;;5067300;28;20698;-82
2020/12/21 05:41:47;;;;;;;27.67;16.73;;;4.50;99.90;;;;;;5062168;28;20227;-82
2020/12/21 05:44:14;;;;;;;26.33;18.93;;;4.50;99.90;;;;;;5059919;28;20446;-81
2020/12/21 05:46:40;;;;;;;26.70;17.42;;;4.50;99.90;;;;;;5060925;28;20929;-81
2020/12/21 05:49:07;;;;;;;28.23;19.52;;;4.40;99.90;;;;;;5059368;28;20865;-81
2020/12/21 05:51:36;;;;;;;28.73;18.15;;;4.40;99.90;;;;;;5060078;28;20222;-80
2020/12/21 05:54:04;;;;;;;29.30;16.83;;;4.50;99.90;;;;;;5060452;28;20222;-82
2020/12/21 05:56:32;;;;;;;26.20;17.08;;;4.50;99.90;;;;;;5062197;28;20697;-81
2020/12/21 05:58:59;;;;;;;24.65;16.05;;;4.50;99.90;;;;;;5065131;28;20207;-82
2020/12/21 06:01:27;;;;;;;26.48;17.83;;;4.50;99.90;;;;;;5067461;28;20286;-82
2020/12/21 06:03:58;;;;;;;25.25;16.45;;;4.50;99.90;;;;;;5066100;28;20221;-81
2020/12/21 06:06:27;;;;;;;24.05;16.08;;;4.50;99.90;;;;;;5063317;28;20219;-81
2020/12/21 06:08:55;;;;;;;22.38;16.50;;;4.40;99.90;;;;;;5062566;28;20282;-83
2020/12/21 06:11:25;;;;;;;28.55;16.13;;;4.50;99.90;;;;;;5060211;28;20258;-82
2020/12/21 06:13:56;;;;;;;25.70;16.77;;;4.50;99.90;;;;;;5059237;28;20199;-82
2020/12/21 06:16:27;;;;;;;27.08;17.83;;;4.60;99.90;;;;;;5058515;28;20187;-81
2020/12/21 06:19:03;;;;;;;27.38;17.85;;;4.50;99.90;;;;;;5058280;28;20191;-81
2020/12/21 06:21:31;;;;;;;31.88;19.27;;;4.50;99.90;;;;;;5057822;28;20518;-82
2020/12/21 06:23:58;;;;;;;27.48;17.45;;;4.60;99.90;;;;;;5059644;28;20226;-81
2020/12/21 06:26:37;;;;;;;23.40;16.27;;;4.60;99.90;;;;;;5058563;28;20234;-81
2020/12/21 06:29:08;;;;;;;25.20;18.25;;;4.70;99.90;;;;;;5056060;28;20465;-82
2020/12/21 06:31:43;;;;;;;29.20;17.90;;;4.60;99.90;;;;;;5058485;28;20439;-82
2020/12/21 06:34:12;;;;;;;26.95;17.83;;;4.50;99.90;;;;;;5058667;28;20260;-82
2020/12/21 06:36:39;;;;;;;25.92;16.85;;;4.60;99.90;;;;;;5057823;28;20238;-82
2020/12/21 06:39:06;;;;;;;22.95;15.90;;;4.60;99.90;;;;;;5057495;28;20724;-83
2020/12/21 06:41:33;;;;;;;26.45;17.20;;;4.60;99.90;;;;;;5072552;22;20237;-85
2020/12/21 06:44:01;;;;;;;26.20;17.80;;;4.60;99.90;;;;;;5060121;28;20241;-85
2020/12/21 06:46:30;;;;;;;21.45;16.85;;;4.70;99.90;;;;;;5069226;28;20266;-85
2020/12/21 06:49:11;;;;;;;23.77;16.23;;;4.70;99.90;;;;;;5072671;28;20272;-84
2020/12/21 06:51:43;;;;;;;23.40;15.15;;;4.60;99.90;;;;;;5072747;28;20248;-84
2020/12/21 06:54:20;;;;;;;22.35;15.65;;;4.60;99.90;;;;;;5072829;28;20190;-85
2020/12/21 06:56:48;;;;;;;22.60;16.05;;;4.50;99.90;;;;;;5066970;28;20202;-86
2020/12/21 06:59:16;;;;;;;26.30;15.75;;;4.40;99.90;;;;;;5062201;28;20282;-85
2020/12/21 07:01:44;;;;;;;23.67;16.15;;;4.40;99.90;;;;;;5059334;28;20230;-85
2020/12/21 07:04:13;;;;;;;19.65;15.40;;;4.40;99.90;;;;;;5058835;28;20207;-85
2020/12/21 07:06:40;;;;;;;26.83;18.10;;;4.40;99.90;;;;;;5059055;28;20206;-85
2020/12/21 07:09:07;;;;;;;21.42;14.90;;;4.30;99.90;;;;;;5058747;28;20198;-87
2020/12/21 07:11:33;;;;;;;24.90;16.40;;;4.20;99.90;;;;;;5059025;28;20233;-85
2020/12/21 07:14:00;;;;;;;23.73;16.05;;;4.30;99.90;;;;;;5062221;28;20266;-85
2020/12/21 07:16:27;;;;;;;27.33;18.30;;;4.20;99.90;;;;;;5065730;28;20270;-86
2020/12/21 07:18:53;;;;;;;24.15;15.55;;;4.20;99.90;;;;;;5067107;28;20241;-85
2020/12/21 07:21:20;;;;;;;24.10;16.45;;;4.10;99.90;;;;;;5066178;28;20223;-85
2020/12/21 07:23:47;;;;;;;28.48;17.58;;;4.10;99.90;;;;;;5065500;28;20295;-86
2020/12/21 07:26:14;;;;;;;24.90;16.90;;;4.10;99.90;;;;;;5065474;28;20704;-85
2020/12/21 07:28:46;;;;;;;30.08;17.77;;;4.10;99.90;;;;;;5065536;28;20207;-85
2020/12/21 07:31:15;;;;;;;25.92;17.05;;;4.10;99.90;;;;;;5068088;28;20234;-85
2020/12/21 07:33:53;;;;;;;28.27;16.75;;;4.00;99.90;;;;;;5068176;28;20213;-85
2020/12/21 07:36:24;;;;;;;27.67;16.17;;;4.00;99.90;;;;;;5068109;28;20187;-85
2020/12/21 07:38:51;;;;;;;22.75;14.60;;;4.00;99.90;;;;;;5069112;28;20223;-86
2020/12/21 07:41:23;;;;;;;26.45;17.30;;;4.00;99.90;;;;;;5068581;28;20283;-86
2020/12/21 07:44:00;;;;;;;25.70;17.60;;;4.00;99.90;;;;;;5067291;28;20219;-85
2020/12/21 07:46:30;;;;;;;26.90;16.73;;;4.00;99.90;;;;;;5065483;28;20282;-86
2020/12/21 07:49:02;;;;;;;24.33;16.13;;;4.00;99.90;;;;;;5064336;28;20203;-85
2020/12/21 07:51:32;;;;;;;26.60;17.30;;;4.00;99.90;;;;;;5063652;28;20227;-85
2020/12/21 07:54:03;;;;;;;23.52;16.63;;;4.10;99.90;;;;;;5064858;28;20210;-86
2020/12/21 07:56:38;;;;;;;26.35;17.55;;;4.00;99.90;;;;;;5063698;28;20648;-85
2020/12/21 07:59:23;;;;;;;28.52;16.50;;;4.00;99.90;;;;;;5080185;28;20170;-86
2020/12/21 08:01:57;;;;;;;29.02;15.95;;;4.20;99.90;;;;;;5068741;28;20227;-86
2020/12/21 08:04:29;;;;;;;24.10;16.35;;;4.20;99.90;;;;;;5064693;28;20222;-87
2020/12/21 08:07:13;;;;;;;23.33;15.70;;;4.20;99.90;;;;;;5063209;28;20214;-84
2020/12/21 08:09:56;;;;;;;22.40;14.65;;;4.30;99.90;;;;;;5065910;28;20227;-86
2020/12/21 08:15:21;;;;;;;22.42;15.05;;;4.30;99.90;;;;;;5061676;28;20297;-86
2020/12/21 08:17:55;;;;;;;21.95;14.43;;;4.40;99.90;;;;;;5067507;28;20634;-84
2020/12/21 08:20:44;;;;;;;22.05;14.23;;;4.40;99.90;;;;;;5069061;28;20241;-86
2020/12/21 08:23:51;;;;;;;21.80;16.88;;;4.50;99.90;;;;;;5066872;28;20591;-87
2020/12/21 08:26:25;;;;;;;23.92;14.73;;;4.50;99.90;;;;;;5066066;28;20252;-86
2020/12/21 08:31:49;;;;;;;20.80;14.93;;;4.40;99.90;;;;;;5067707;28;20262;-85
2020/12/21 08:34:17;;;;;;;23.33;14.90;;;4.50;99.90;;;;;;5068136;28;20594;-86
2020/12/21 08:36:44;;;;;;;24.85;17.02;;;4.50;99.90;;;;;;5078499;28;20214;-85
2020/12/21 08:39:13;;;;;;;20.48;15.40;;;4.50;99.90;;;;;;5078450;28;20212;-81
2020/12/21 08:49:18;;;;;;;18.73;14.60;;;4.40;99.90;;;;;;5023828;28;20212;-84
2020/12/21 08:51:45;;;;;;;22.10;15.13;;;4.50;99.90;;;;;;5025147;28;20298;-85
2020/12/21 08:54:12;;;;;;;25.50;16.38;;;4.50;99.90;;;;;;5023985;28;20207;-80
2020/12/21 08:56:39;;;;;;;17.40;13.68;;;4.50;99.90;;;;;;5021079;28;20570;-86
2020/12/21 08:59:05;;;;;;;25.90;16.88;;;4.70;99.90;;;;;;5021884;28;20239;-86
2020/12/21 09:01:31;;;;;;;20.88;14.90;;;4.70;99.90;;;;;;5021425;28;20200;-86
2020/12/21 09:03:57;;;;;;;16.48;13.23;;;4.70;99.90;;;;;;5020389;28;20280;-86
2020/12/21 09:06:25;;;;;;;20.80;14.90;;;4.70;99.90;;;;;;5022080;28;20208;-86
2020/12/21 09:08:52;;;;;;;20.83;15.10;;;4.80;99.90;;;;;;5020887;28;20283;-86
2020/12/21 09:11:21;;;;;;;20.17;14.55;;;4.70;99.90;;;;;;5021805;28;20258;-86
2020/12/21 09:13:48;;;;;;;20.60;14.45;;;4.70;99.90;;;;;;5019990;28;20236;-86
2020/12/21 09:16:19;;;;;;;20.98;14.98;;;4.70;99.90;;;;;;5020056;28;20257;-86
2020/12/21 09:18:48;;;;;;;19.83;15.30;;;4.80;99.90;;;;;;5019961;28;20188;-87
2020/12/21 09:21:19;;;;;;;23.52;15.82;;;4.70;99.90;;;;;;5019817;28;20200;-86
2020/12/21 09:23:45;;;;;;;20.20;14.40;;;4.70;99.90;;;;;;5020181;28;20207;-87
2020/12/21 09:26:11;;;;;;;22.92;15.52;;;4.80;99.90;;;;;;5019535;28;20228;-84
2020/12/21 09:28:39;;;;;;;20.20;15.10;;;4.70;99.90;;;;;;5021013;28;20230;-86
2020/12/21 09:31:05;;;;;;;21.38;15.00;;;4.70;99.90;;;;;;5020854;28;20315;-86
2020/12/21 09:33:31;;;;;;;23.73;13.30;;;4.80;99.90;;;;;;5022158;28;20247;-86
2020/12/21 09:35:57;;;;;;;29.50;16.13;;;4.80;99.90;;;;;;5019216;28;20212;-84
2020/12/21 09:38:24;;;;;;;27.58;16.65;;;4.80;99.90;;;;;;5019546;28;20315;-85
2020/12/21 09:40:50;;;;;;;26.60;15.27;;;4.80;99.90;;;;;;5019163;28;20196;-85
2020/12/21 09:43:16;;;;;;;30.38;16.05;;;4.90;99.90;;;;;;5019503;28;20234;-84
2020/12/21 09:45:44;;;;;;;21.90;15.98;;;4.90;99.90;;;;;;5019226;28;20212;-84
2020/12/21 09:48:10;;;;;;;24.08;14.75;;;5.00;99.90;;;;;;5019020;28;20258;-84
2020/12/21 09:50:36;;;;;;;23.77;15.32;;;5.00;99.90;;;;;;5019062;28;20220;-84
2020/12/21 09:53:03;;;;;;;23.10;15.07;;;5.10;99.90;;;;;;5019600;28;20284;-85
2020/12/21 09:55:29;;;;;;;18.30;14.00;;;5.10;99.90;;;;;;5018861;28;20273;-84
2020/12/21 09:57:56;;;;;;;17.20;13.75;;;5.10;99.90;;;;;;5019457;28;20224;-84
2020/12/21 10:00:23;;;;;;;21.98;15.23;;;5.20;99.90;;;;;;5020217;28;20231;-86
2020/12/21 10:02:50;;;;;;;16.67;13.05;;;5.20;99.90;;;;;;5019343;28;20312;-84
2020/12/21 10:05:16;;;;;;;20.48;14.75;;;5.30;99.90;;;;;;5018881;28;20209;-84
2020/12/21 10:07:43;;;;;;;15.68;12.77;;;5.30;99.90;;;;;;5018433;28;20248;-84
2020/12/21 10:10:09;;;;;;;20.35;13.38;;;5.40;99.90;;;;;;5019232;28;20216;-84
2020/12/21 10:12:36;;;;;;;19.38;14.85;;;5.40;99.90;;;;;;5018771;28;20283;-84
2020/12/21 10:15:02;;;;;;;21.75;14.43;;;5.40;99.90;;;;;;5020041;28;20303;-84
2020/12/21 10:17:29;;;;;;;20.25;13.45;;;5.40;99.90;;;;;;5018495;28;20717;-84
2020/12/21 10:19:56;;;;;;;18.83;13.40;;;5.50;99.90;;;;;;5019051;28;20287;-86
2020/12/21 10:22:22;;;;;;;15.00;12.30;;;5.60;99.90;;;;;;5019704;28;20204;-84
2020/12/21 10:24:48;;;;;;;25.83;15.18;;;5.50;99.90;;;;;;5018441;28;20287;-84
2020/12/21 10:27:15;;;;;;;20.88;14.05;;;5.50;99.90;;;;;;5019253;28;20266;-83
2020/12/21 10:29:41;;;;;;;18.75;13.32;;;5.60;99.90;;;;;;5018296;28;20224;-84
2020/12/21 10:32:07;;;;;;;21.10;14.20;;;5.80;99.90;;;;;;5020787;28;20204;-83
2020/12/21 10:34:34;;;;;;;15.40;12.00;;;5.90;99.90;;;;;;5020332;28;20200;-85
2020/12/21 10:37:02;;;;;;;17.33;13.30;;;5.80;99.90;;;;;;5019328;28;20229;-84
2020/12/21 10:39:28;;;;;;;16.48;12.93;;;5.80;99.90;;;;;;5019367;28;20685;-84
2020/12/21 10:41:55;;;;;;;16.58;12.70;;;6.00;99.90;;;;;;5019764;28;20209;-85
2020/12/21 10:44:22;;;;;;;16.73;11.90;;;5.90;99.90;;;;;;5018550;28;20584;-85
2020/12/21 10:46:48;;;;;;;17.55;12.43;;;6.00;99.90;;;;;;5018166;28;20224;-85
2020/12/21 10:49:14;;;;;;;15.57;11.93;;;6.10;99.90;;;;;;5018419;28;20212;-85
2020/12/21 10:51:41;;;;;;;19.88;11.95;;;6.10;99.90;;;;;;5017987;28;20262;-84
2020/12/21 10:54:08;;;;;;;16.55;12.90;;;6.00;99.90;;;;;;5018641;28;20637;-84
2020/12/21 10:56:34;;;;;;;16.27;11.70;;;6.10;99.90;;;;;;5019057;28;20295;-84
2020/12/21 10:59:00;;;;;;;20.15;12.43;;;6.10;99.90;;;;;;5018638;28;20341;-85
2020/12/21 11:01:27;;;;;;;17.25;12.85;;;6.20;99.90;;;;;;5019334;28;20201;-84
2020/12/21 11:03:53;;;;;;;15.57;13.38;;;6.20;99.90;;;;;;5018349;28;20208;-83
2020/12/21 11:06:22;;;;;;;18.00;13.88;;;6.20;99.90;;;;;;5017645;28;20204;-84
2020/12/21 11:08:49;;;;;;;14.77;11.68;;;6.20;99.90;;;;;;5019070;28;20200;-84
2020/12/21 11:11:27;;;;;;;14.48;10.02;;;6.30;99.90;;;;;;5018606;28;20316;-84
2020/12/21 11:13:54;;;;;;;15.77;10.73;;;6.30;99.90;;;;;;5020565;28;20242;-83
2020/12/21 11:16:20;;;;;;;14.93;10.45;;;6.40;99.90;;;;;;5033927;28;20256;-86
2020/12/21 11:18:47;;;;;;;13.77;10.00;;;6.40;99.90;;;;;;5034183;28;20280;-83
2020/12/21 11:21:14;;;;;;;15.43;11.10;;;6.50;99.90;;;;;;5018145;28;20207;-83
2020/12/21 11:23:40;;;;;;;17.55;11.07;;;6.60;99.90;;;;;;5017530;28;20308;-84
2020/12/21 11:26:07;;;;;;;13.77;10.07;;;6.50;99.90;;;;;;5017688;28;20265;-83
2020/12/21 11:28:34;;;;;;;15.02;10.10;;;6.50;99.90;;;;;;5018292;28;20238;-85
2020/12/21 11:31:00;;;;;;;12.95;10.82;;;6.50;99.90;;;;;;5016739;28;20224;-84
2020/12/21 11:33:27;;;;;;;15.25;10.02;;;6.50;99.90;;;;;;5017382;28;20200;-85
2020/12/21 11:35:53;;;;;;;17.05;11.25;;;6.50;99.90;;;;;;5018436;28;20235;-85
2020/12/21 11:38:19;;;;;;;12.68;10.52;;;6.50;99.90;;;;;;5015827;28;20228;-84
2020/12/21 11:40:47;;;;;;;17.23;10.45;;;6.40;99.90;;;;;;5019645;28;20197;-84
2020/12/21 11:43:14;;;;;;;14.38;10.77;;;6.50;99.90;;;;;;5022643;28;20240;-85
2020/12/21 11:45:42;;;;;;;12.23;10.32;;;6.60;99.90;;;;;;5026194;28;20287;-84
2020/12/21 11:48:08;;;;;;;10.93;9.25;;;6.60;99.90;;;;;;5027759;28;20240;-84
2020/12/21 11:50:35;;;;;;;13.07;9.77;;;6.60;99.90;;;;;;5024979;28;20288;-83
2020/12/21 11:53:04;;;;;;;12.95;9.75;;;6.60;99.90;;;;;;5028372;28;20288;-83
2020/12/21 11:55:33;;;;;;;15.98;10.35;;;6.70;99.90;;;;;;5025586;28;20215;-84
2020/12/21 11:57:59;;;;;;;16.17;10.57;;;6.70;99.90;;;;;;5025876;28;20344;-83
2020/12/21 12:00:25;;;;;;;15.40;11.18;;;6.70;99.90;;;;;;5023576;28;20201;-83
2020/12/21 12:02:53;;;;;;;15.23;9.43;;;6.70;99.90;;;;;;5021035;28;20204;-84
2020/12/21 12:05:19;;;;;;;11.20;9.55;;;6.60;99.90;;;;;;5025561;28;20275;-84
2020/12/21 12:07:45;;;;;;;14.60;10.00;;;6.60;99.90;;;;;;5031407;28;20232;-85
2020/12/21 12:10:14;;;;;;;15.07;9.27;;;6.50;99.90;;;;;;5022828;28;20220;-85
2020/12/21 12:12:40;;;;;;;14.82;10.55;;;6.50;99.90;;;;;;5027353;28;20299;-84
2020/12/21 12:15:07;;;;;;;15.75;10.90;;;6.40;99.90;;;;;;5028878;28;20272;-85
2020/12/21 12:17:33;;;;;;;17.95;11.00;;;6.50;99.90;;;;;;5023685;28;20740;-83
2020/12/21 12:20:00;;;;;;;22.88;10.25;;;6.40;99.90;;;;;;5023711;28;20551;-84
2020/12/21 12:22:27;;;;;;;16.67;11.20;;;6.30;99.90;;;;;;5022898;28;20204;-85
2020/12/21 12:24:53;;;;;;;16.17;11.52;;;6.20;99.90;;;;;;5022855;28;20212;-86
2020/12/21 12:27:19;;;;;;;18.20;11.40;;;6.20;99.90;;;;;;5023761;28;20235;-85
2020/12/21 12:29:46;;;;;;;14.23;10.70;;;6.10;99.90;;;;;;5026602;28;20264;-85
2020/12/21 12:32:12;;;;;;;17.77;11.73;;;6.10;99.90;;;;;;5023918;28;20205;-85
2020/12/21 12:34:39;;;;;;;18.23;11.30;;;6.00;99.90;;;;;;5023498;28;20268;-85
2020/12/21 12:37:06;;;;;;;15.15;10.43;;;6.00;99.90;;;;;;5021797;28;20273;-85
2020/12/21 12:39:35;;;;;;;16.45;11.77;;;6.00;99.90;;;;;;5024870;28;20315;-84
2020/12/21 12:42:02;;;;;;;13.80;10.40;;;6.10;99.90;;;;;;5023542;28;20279;-84
2020/12/21 12:44:29;;;;;;;12.10;10.88;;;6.10;99.90;;;;;;5025716;28;20212;-83
2020/12/21 12:46:56;;;;;;;14.80;11.05;;;6.00;99.90;;;;;;5022295;28;20315;-85
2020/12/21 12:49:23;;;;;;;16.63;11.68;;;6.00;99.90;;;;;;5025935;28;20200;-85
2020/12/21 12:51:54;;;;;;;17.92;9.57;;;6.10;99.90;;;;;;5026350;28;20236;-86
2020/12/21 12:54:24;;;;;;;15.85;11.77;;;6.10;99.90;;;;;;5021724;28;20223;-86